LGKR/CFU METAR and TAF weather

Enter ICAO airport designator
Station Type Date Time Source
LGKR METAR 2019/09/21 21:50 UTC NOAA

LGKR 212150Z 26002KT CAVOK 20/17 Q1021 NOSIG


Station Type Date Time Source
LGKR Decoded METAR 2019/09/21 21:50 UTC NOAA

Kerkyra Airport , Greece (LGKR) 39-37N 019-55E 4M
Sep 21, 2019 - 05:50 PM EDT / 2019.09.21 2150 UTC
Wind: from the W (260 degrees) at 2 MPH (2 KT):0
Visibility: greater than 7 mile(s):0
Temperature: 68 F (20 C)
Dew Point: 62 F (17 C)
Relative Humidity: 82%
Pressure (altimeter): 30.15 in. Hg (1021 hPa)
ob: LGKR 212150Z 26002KT CAVOK 20/17 Q1021 NOSIG
cycle: 22

Station Type Date Time Source
LGKR TAF 2019/09/21 18:16 UTC NOAA

TAF LGKR 211700Z 2118/2218 28010KT 9999 FEW020
BECMG 2200/2202 16010KT

Example: see airport list